createdAt,value
2019-05-22T00:03:26.778Z,2.83
2019-05-22T00:08:32.008Z,3.00
2019-05-22T00:13:39.246Z,3.55
2019-05-22T00:18:43.946Z,2.80
2019-05-22T00:23:49.121Z,3.25
2019-05-22T00:28:54.009Z,3.42
2019-05-22T00:34:00.319Z,3.20
2019-05-22T00:39:06.693Z,3.00
2019-05-22T00:44:14.150Z,3.25
2019-05-22T00:49:20.213Z,3.00
2019-05-22T00:54:54.424Z,3.47
2019-05-22T01:00:10.024Z,3.20
2019-05-22T01:05:15.993Z,3.05
2019-05-22T01:10:22.172Z,3.40
2019-05-22T01:15:26.912Z,3.25
2019-05-22T01:20:33.355Z,3.80
2019-05-22T01:25:39.156Z,2.85
2019-05-22T01:30:45.244Z,3.05
2019-05-22T01:36:03.855Z,3.90
2019-05-22T01:41:28.783Z,3.52
2019-05-22T01:46:34.348Z,3.98
2019-05-22T01:51:38.972Z,3.27
2019-05-22T01:56:46.003Z,3.50
2019-05-22T02:01:52.003Z,3.22
2019-05-22T02:06:58.314Z,3.77
2019-05-22T02:12:13.806Z,3.40
2019-05-22T02:17:22.434Z,3.30
2019-05-22T02:22:26.934Z,3.50
2019-05-22T02:27:31.298Z,3.22
2019-05-22T02:32:37.887Z,3.15
2019-05-22T02:37:42.937Z,2.95
2019-05-22T02:42:48.044Z,3.12
2019-05-22T02:47:53.865Z,3.20
2019-05-22T02:52:59.954Z,3.17
2019-05-22T02:58:06.112Z,3.20
2019-05-22T03:03:10.443Z,2.90
2019-05-22T03:08:15.152Z,3.05
2019-05-22T03:13:24.596Z,2.90
2019-05-22T03:18:28.948Z,2.55
2019-05-22T03:23:36.728Z,3.02
2019-05-22T03:28:41.466Z,2.77
2019-05-22T03:33:47.442Z,2.65
2019-05-22T03:38:51.967Z,3.37
2019-05-22T03:43:58.474Z,2.92
2019-05-22T03:49:04.858Z,3.22
2019-05-22T03:54:11.061Z,2.85
2019-05-22T03:59:15.884Z,2.62
2019-05-22T04:04:36.733Z,2.70
2019-05-22T04:09:44.412Z,3.05
2019-05-22T04:14:48.873Z,2.70
2019-05-22T04:19:53.599Z,2.87
2019-05-22T04:24:58.437Z,2.75
2019-05-22T04:30:04.194Z,2.90
2019-05-22T04:35:12.192Z,2.80
2019-05-22T04:40:27.413Z,2.75
2019-05-22T04:45:45.745Z,2.60
2019-05-22T04:50:50.173Z,2.35
2019-05-22T04:55:54.722Z,2.58
2019-05-22T05:00:59.245Z,2.42
2019-05-22T05:06:06.722Z,2.35
2019-05-22T05:11:10.966Z,2.20
2019-05-22T05:16:16.172Z,2.20
2019-05-22T05:21:20.776Z,2.33
2019-05-22T05:26:26.293Z,2.40
2019-05-22T05:31:30.829Z,2.40
2019-05-22T05:36:36.410Z,2.00
2019-05-22T05:41:41.303Z,2.20
2019-05-22T05:46:46.268Z,2.10
2019-05-22T05:51:50.630Z,1.72
2019-05-22T05:56:57.530Z,2.40
2019-05-22T06:02:02.504Z,2.40
2019-05-22T06:07:20.923Z,2.08
2019-05-22T06:12:25.647Z,2.20
2019-05-22T06:18:07.902Z,1.62
2019-05-22T06:23:29.520Z,1.90
2019-05-22T06:28:38.607Z,2.17
2019-05-22T06:33:43.049Z,1.87
2019-05-22T06:38:59.810Z,2.02
2019-05-22T06:44:33.955Z,2.00
2019-05-22T06:49:40.926Z,1.80
2019-05-22T06:54:45.820Z,1.75
2019-05-22T07:00:10.812Z,2.00
2019-05-22T07:04:57.081Z,1.92
2019-05-22T07:10:02.600Z,1.92
2019-05-22T07:15:18.329Z,3.70
2019-05-22T07:20:24.109Z,2.85
2019-05-22T07:25:29.855Z,3.60
2019-05-22T07:30:34.717Z,3.98
2019-05-22T07:36:04.693Z,4.78
2019-05-22T07:40:50.175Z,4.05
2019-05-22T07:45:53.790Z,4.22
2019-05-22T07:50:59.074Z,4.00
2019-05-22T07:56:08.327Z,3.22
2019-05-22T08:01:13.992Z,4.83
2019-05-22T08:06:19.390Z,4.70
2019-05-22T08:11:25.649Z,3.12
2019-05-22T08:16:30.145Z,2.83
2019-05-22T08:21:34.493Z,2.70
2019-05-22T08:26:53.342Z,2.50
2019-05-22T08:31:48.254Z,2.83
2019-05-22T08:36:53.452Z,2.85
2019-05-22T08:41:58.429Z,2.58
2019-05-22T08:47:02.850Z,3.08
2019-05-22T08:52:22.532Z,2.10
2019-05-22T08:57:16.026Z,2.40
2019-05-22T09:02:20.832Z,2.33
2019-05-22T09:07:25.923Z,2.30
2019-05-22T09:12:31.903Z,2.30
2019-05-22T09:17:36.828Z,5.37
2019-05-22T09:22:42.286Z,5.35
2019-05-22T09:27:47.467Z,5.40
2019-05-22T09:32:52.499Z,5.12
2019-05-22T09:37:57.688Z,5.80
2019-05-22T09:43:03.465Z,5.53
2019-05-22T09:48:08.120Z,5.83
2019-05-22T09:53:13.008Z,6.80
2019-05-22T09:58:17.503Z,6.17
2019-05-22T10:03:22.132Z,6.37
2019-05-22T10:08:27.077Z,6.30
2019-05-22T10:13:32.198Z,6.78
2019-05-22T10:18:37.058Z,6.25
2019-05-22T10:23:41.987Z,5.97
2019-05-22T10:28:46.731Z,6.08
2019-05-22T10:33:52.562Z,6.22
2019-05-22T10:38:57.039Z,4.47
2019-05-22T10:44:01.491Z,4.30
2019-05-22T10:49:05.930Z,3.72
2019-05-22T10:54:10.360Z,8.98
2019-05-22T10:59:14.957Z,9.35
2019-05-22T11:04:20.773Z,8.65
2019-05-22T11:09:25.457Z,8.33
2019-05-22T11:14:30.398Z,8.38
2019-05-22T11:19:36.547Z,7.50
2019-05-22T11:24:40.903Z,7.12
2019-05-22T11:29:45.523Z,7.35
2019-05-22T11:34:50.149Z,6.47
2019-05-22T11:39:54.784Z,6.17
2019-05-22T11:44:59.319Z,4.70
2019-05-22T11:50:05.884Z,6.37
2019-05-22T11:55:11.073Z,5.53
2019-05-22T12:00:18.412Z,3.58
2019-05-22T12:05:24.007Z,3.30
2019-05-22T12:10:29.197Z,3.45
2019-05-22T12:15:33.806Z,2.75
2019-05-22T12:20:38.172Z,2.90
2019-05-22T12:25:42.597Z,2.52
2019-05-22T12:30:48.090Z,2.60
2019-05-22T12:35:52.990Z,2.50
2019-05-22T12:40:58.394Z,2.40
2019-05-22T12:46:03.431Z,2.60
2019-05-22T12:51:07.855Z,2.47
2019-05-22T12:56:12.569Z,2.20
2019-05-22T13:01:18.642Z,2.33
2019-05-22T13:06:24.073Z,2.58
2019-05-22T13:11:28.507Z,2.60
2019-05-22T13:16:33.664Z,2.20
2019-05-22T13:21:39.445Z,2.47
2019-05-22T13:26:46.000Z,3.27
2019-05-22T13:31:52.628Z,6.50
2019-05-22T13:36:57.940Z,4.75
2019-05-22T13:42:02.685Z,5.50
2019-05-22T13:47:07.559Z,6.40
2019-05-22T13:52:13.055Z,7.55
2019-05-22T13:57:18.060Z,8.55
2019-05-22T14:02:27.082Z,5.60
2019-05-22T14:07:30.713Z,6.25
2019-05-22T14:12:35.506Z,9.28
2019-05-22T14:17:40.300Z,6.53
2019-05-22T14:22:44.766Z,9.45
2019-05-22T14:27:49.374Z,7.67
2019-05-22T14:32:55.207Z,7.42
2019-05-22T14:38:00.589Z,6.47
2019-05-22T14:43:24.546Z,9.63
2019-05-22T14:48:29.445Z,6.72
2019-05-22T14:53:35.703Z,8.83
2019-05-22T14:58:42.371Z,8.08
2019-05-22T15:03:47.238Z,7.22
2019-05-22T15:08:51.667Z,7.28
2019-05-22T15:13:56.867Z,7.42
2019-05-22T15:19:01.249Z,5.85
2019-05-22T15:24:06.441Z,5.53
2019-05-22T15:29:10.985Z,5.00
2019-05-22T15:34:17.667Z,4.60
2019-05-22T15:39:26.375Z,4.05
2019-05-22T15:44:31.761Z,3.67
2019-05-22T15:49:37.088Z,3.45
2019-05-22T15:54:42.412Z,2.83
2019-05-22T15:59:47.934Z,23.65
2019-05-22T16:04:52.643Z,37.25
2019-05-22T16:09:57.394Z,32.88
2019-05-22T16:15:02.312Z,29.27
2019-05-22T16:20:08.173Z,29.02
2019-05-22T16:25:13.062Z,27.00
2019-05-22T16:30:17.948Z,26.80
2019-05-22T16:35:44.292Z,22.98
2019-05-22T16:40:49.354Z,22.50
2019-05-22T16:45:54.366Z,20.82
2019-05-22T16:50:59.854Z,19.87
2019-05-22T16:56:05.435Z,20.00
2019-05-22T17:01:10.215Z,19.07
2019-05-22T17:06:15.797Z,17.30
2019-05-22T17:11:20.935Z,17.17
2019-05-22T17:16:27.379Z,15.20
2019-05-22T17:21:32.125Z,12.35
2019-05-22T17:26:38.121Z,8.30
2019-05-22T17:31:43.693Z,12.20
2019-05-22T17:36:48.150Z,9.28
2019-05-22T17:41:56.268Z,10.32
2019-05-22T17:47:01.370Z,9.70
2019-05-22T17:52:06.907Z,9.43
2019-05-22T17:57:11.639Z,7.75
2019-05-22T18:02:17.932Z,8.40
2019-05-22T18:07:22.937Z,7.60
2019-05-22T18:12:28.451Z,6.65
2019-05-22T18:17:38.596Z,7.25
2019-05-22T18:22:45.902Z,5.87
2019-05-22T18:27:51.238Z,5.75
2019-05-22T18:32:55.975Z,5.70
2019-05-22T18:38:04.383Z,5.35
2019-05-22T18:43:06.856Z,5.83
2019-05-22T18:48:11.278Z,4.42
2019-05-22T18:53:16.080Z,4.67
2019-05-22T18:58:20.592Z,4.30
2019-05-22T19:03:26.166Z,4.50
2019-05-22T19:08:31.106Z,4.40
2019-05-22T19:13:35.585Z,3.25
2019-05-22T19:18:40.342Z,3.80
2019-05-22T19:23:44.792Z,3.90
2019-05-22T19:28:49.293Z,3.30
2019-05-22T19:33:53.736Z,3.40
2019-05-22T19:38:58.479Z,3.37
2019-05-22T19:44:03.689Z,3.40
2019-05-22T19:49:08.560Z,3.15
2019-05-22T19:54:13.093Z,3.08
2019-05-22T19:59:19.167Z,3.37
2019-05-22T20:04:25.645Z,3.10
2019-05-22T20:09:31.178Z,3.00
2019-05-22T20:14:35.915Z,5.78
2019-05-22T20:19:40.692Z,3.35
2019-05-22T20:24:45.063Z,3.22
2019-05-22T20:29:49.448Z,3.20
2019-05-22T20:34:53.961Z,3.05
2019-05-22T20:39:58.402Z,2.50
2019-05-22T20:45:02.896Z,2.75
2019-05-22T20:50:10.764Z,2.37
2019-05-22T20:55:16.431Z,2.10
2019-05-22T21:00:23.411Z,2.30
2019-05-22T21:05:27.777Z,2.55
2019-05-22T21:10:32.473Z,2.50
2019-05-22T21:15:37.335Z,2.40
2019-05-22T21:20:54.310Z,2.47
2019-05-22T21:25:48.187Z,2.22
2019-05-22T21:30:54.766Z,1.87
2019-05-22T21:35:59.460Z,2.40
2019-05-22T21:41:05.068Z,2.40
2019-05-22T21:46:09.839Z,2.50
2019-05-22T21:51:14.902Z,2.08
2019-05-22T21:56:19.395Z,2.30
2019-05-22T22:01:25.528Z,2.37
2019-05-22T22:06:33.199Z,2.17
2019-05-22T22:11:37.727Z,2.47
2019-05-22T22:17:01.781Z,2.55
2019-05-22T22:22:06.959Z,2.30
2019-05-22T22:27:11.823Z,2.10
2019-05-22T22:32:17.883Z,1.95
2019-05-22T22:37:23.277Z,1.80
2019-05-22T22:42:29.793Z,1.90
2019-05-22T22:47:36.305Z,2.30
2019-05-22T22:52:42.784Z,1.80
2019-05-22T22:57:49.703Z,2.00
2019-05-22T23:02:56.487Z,2.00
2019-05-22T23:08:01.831Z,2.20
2019-05-22T23:13:07.194Z,1.95
2019-05-22T23:18:15.670Z,2.00
2019-05-22T23:23:19.489Z,2.00
2019-05-22T23:28:34.082Z,2.42
2019-05-22T23:33:31.347Z,2.15
2019-05-22T23:38:37.135Z,2.10
2019-05-22T23:43:43.095Z,2.30
2019-05-22T23:48:48.317Z,1.90
2019-05-22T23:53:53.396Z,1.95
2019-05-22T23:58:58.655Z,1.92
